createdAt,value
2022-08-28T00:01:33.399Z,5.40
2022-08-28T00:04:01.115Z,6.60
2022-08-28T00:06:28.277Z,7.43
2022-08-28T00:08:56.383Z,7.50
2022-08-28T00:11:23.451Z,6.87
2022-08-28T00:13:50.914Z,9.27
2022-08-28T00:16:18.816Z,7.90
2022-08-28T00:18:47.089Z,8.47
2022-08-28T00:21:14.707Z,7.77
2022-08-28T00:23:43.567Z,8.23
2022-08-28T00:26:11.576Z,8.33
2022-08-28T00:28:38.451Z,8.97
2022-08-28T00:31:05.528Z,8.20
2022-08-28T00:33:34.979Z,9.73
2022-08-28T00:36:03.349Z,9.53
2022-08-28T00:38:30.960Z,9.70
2022-08-28T00:41:03.976Z,10.00
2022-08-28T00:43:42.838Z,10.57
2022-08-28T00:46:19.572Z,10.13
2022-08-28T00:48:47.499Z,10.20
2022-08-28T00:51:35.030Z,11.07
2022-08-28T00:54:07.377Z,12.13
2022-08-28T00:56:37.778Z,10.23
2022-08-28T00:59:15.548Z,11.40
2022-08-28T01:01:43.822Z,10.13
2022-08-28T01:04:16.889Z,9.70
2022-08-28T01:06:46.266Z,8.87
2022-08-28T01:09:13.224Z,8.40
2022-08-28T01:11:44.038Z,9.23
2022-08-28T01:14:14.078Z,10.43
2022-08-28T01:16:43.276Z,8.07
2022-08-28T01:19:31.147Z,8.90
2022-08-28T01:22:25.213Z,8.20
2022-08-28T01:24:54.122Z,7.67
2022-08-28T01:27:29.802Z,8.03
2022-08-28T01:29:57.628Z,7.47
2022-08-28T01:32:45.789Z,8.97
2022-08-28T01:35:16.979Z,7.73
2022-08-28T01:37:45.741Z,8.77
2022-08-28T01:40:20.330Z,8.13
2022-08-28T01:42:48.241Z,7.60
2022-08-28T01:45:20.883Z,7.53
2022-08-28T01:47:48.542Z,7.83
2022-08-28T01:50:23.181Z,9.07
2022-08-28T01:52:53.110Z,9.97
2022-08-28T01:55:21.565Z,9.43
2022-08-28T01:57:56.187Z,14.77
2022-08-28T02:00:27.528Z,10.73
2022-08-28T02:02:58.360Z,12.57
2022-08-28T02:05:28.389Z,10.70
2022-08-28T02:07:57.718Z,9.70
2022-08-28T02:10:28.396Z,10.87
2022-08-28T02:12:59.068Z,11.50
2022-08-28T02:15:27.986Z,10.70
2022-08-28T02:18:00.172Z,10.13
2022-08-28T02:20:29.164Z,11.13
2022-08-28T02:22:57.668Z,10.73
2022-08-28T02:25:29.394Z,10.37
2022-08-28T02:27:57.018Z,11.37
2022-08-28T02:30:26.567Z,11.37
2022-08-28T02:32:53.732Z,12.77
2022-08-28T02:35:22.312Z,11.00
2022-08-28T02:37:57.659Z,11.17
2022-08-28T02:40:28.049Z,10.93
2022-08-28T02:42:58.999Z,12.07
2022-08-28T02:45:53.291Z,9.80
2022-08-28T02:48:21.422Z,10.47
2022-08-28T02:50:49.839Z,11.17
2022-08-28T02:53:23.892Z,11.43
2022-08-28T02:55:51.848Z,10.60
2022-08-28T02:58:19.649Z,10.07
2022-08-28T03:00:46.847Z,10.57
2022-08-28T03:03:16.749Z,10.17
2022-08-28T03:05:43.762Z,9.63
2022-08-28T03:08:11.840Z,9.83
2022-08-28T03:10:41.995Z,10.30
2022-08-28T03:13:26.852Z,9.00
2022-08-28T03:15:57.936Z,10.43
2022-08-28T03:18:30.234Z,11.93
2022-08-28T03:20:57.575Z,10.60
2022-08-28T03:23:27.288Z,9.67
2022-08-28T03:26:07.904Z,11.97
2022-08-28T03:28:40.674Z,11.83
2022-08-28T03:31:12.516Z,10.40
2022-08-28T03:33:42.629Z,11.37
2022-08-28T03:36:12.117Z,9.90
2022-08-28T03:38:39.272Z,10.23
2022-08-28T03:41:11.633Z,9.20
2022-08-28T03:43:40.223Z,9.90
2022-08-28T03:46:12.529Z,11.13
2022-08-28T03:48:42.227Z,10.90
2022-08-28T03:51:18.970Z,11.43
2022-08-28T03:53:50.046Z,10.83
2022-08-28T03:56:24.660Z,10.47
2022-08-28T03:58:53.895Z,11.43
2022-08-28T04:01:21.458Z,12.37
2022-08-28T04:03:48.457Z,11.93
2022-08-28T04:06:15.937Z,12.10
2022-08-28T04:08:43.036Z,10.20
2022-08-28T04:11:10.083Z,9.67
2022-08-28T04:13:36.892Z,10.80
2022-08-28T04:16:10.851Z,9.83
2022-08-28T04:18:41.056Z,10.80
2022-08-28T04:21:14.246Z,11.13
2022-08-28T04:23:43.317Z,9.93
2022-08-28T04:26:13.473Z,10.13
2022-08-28T04:28:41.948Z,9.97
2022-08-28T04:31:09.148Z,11.87
2022-08-28T04:33:38.024Z,10.43
2022-08-28T04:36:08.476Z,10.20
2022-08-28T04:38:36.813Z,9.20
2022-08-28T04:41:07.943Z,9.00
2022-08-28T04:43:35.056Z,9.37
2022-08-28T04:46:11.631Z,9.27
2022-08-28T04:48:39.504Z,10.30
2022-08-28T04:51:09.351Z,11.30
2022-08-28T04:53:37.884Z,10.70
2022-08-28T04:56:07.642Z,11.03
2022-08-28T04:58:35.095Z,9.30
2022-08-28T05:01:15.631Z,8.83
2022-08-28T05:03:42.646Z,8.73
2022-08-28T05:06:09.519Z,9.93
2022-08-28T05:08:36.387Z,10.50
2022-08-28T05:11:24.561Z,10.17
2022-08-28T05:14:15.828Z,13.07
2022-08-28T05:16:46.052Z,12.50
2022-08-28T05:19:13.178Z,12.63
2022-08-28T05:21:40.159Z,12.10
2022-08-28T05:24:07.743Z,11.10
2022-08-28T05:26:35.614Z,12.30
2022-08-28T05:29:06.904Z,12.37
2022-08-28T05:31:35.430Z,14.27
2022-08-28T05:34:04.471Z,13.47
2022-08-28T05:36:35.440Z,11.77
2022-08-28T05:39:10.385Z,13.13
2022-08-28T05:41:39.602Z,13.03
2022-08-28T05:44:09.424Z,12.90
2022-08-28T05:46:39.583Z,13.30
2022-08-28T05:49:10.028Z,12.77
2022-08-28T05:51:40.145Z,13.73
2022-08-28T05:54:06.921Z,14.63
2022-08-28T05:56:36.536Z,14.20
2022-08-28T05:59:05.922Z,14.50
2022-08-28T06:01:35.677Z,14.03
2022-08-28T06:04:05.871Z,14.07
2022-08-28T06:06:39.259Z,14.97
2022-08-28T06:09:16.239Z,15.07
2022-08-28T06:11:44.630Z,14.27
2022-08-28T06:14:16.528Z,13.03
2022-08-28T06:16:50.469Z,13.70
2022-08-28T06:19:18.158Z,12.73
2022-08-28T06:21:46.954Z,12.97
2022-08-28T06:24:14.477Z,15.17
2022-08-28T06:26:41.777Z,12.87
2022-08-28T06:29:12.743Z,12.87
2022-08-28T06:31:40.476Z,12.27
2022-08-28T06:34:08.958Z,12.37
2022-08-28T06:36:39.387Z,13.10
2022-08-28T06:39:07.101Z,12.93
2022-08-28T06:41:40.791Z,13.37
2022-08-28T06:44:09.554Z,13.00
2022-08-28T06:46:36.707Z,13.20
2022-08-28T06:49:08.306Z,12.13
2022-08-28T06:51:35.880Z,11.63
2022-08-28T06:54:03.099Z,13.03
2022-08-28T06:56:29.964Z,13.00
2022-08-28T06:58:58.484Z,13.57
2022-08-28T07:01:32.908Z,12.60
2022-08-28T07:04:03.978Z,11.97
2022-08-28T07:06:35.319Z,13.23
2022-08-28T07:09:05.313Z,11.80
2022-08-28T07:11:34.576Z,11.73
2022-08-28T07:14:02.282Z,10.63
2022-08-28T07:16:40.412Z,10.47
2022-08-28T07:19:10.499Z,11.77
2022-08-28T07:21:41.625Z,11.87
2022-08-28T07:24:10.493Z,11.03
2022-08-28T07:26:40.777Z,10.83
2022-08-28T07:29:11.553Z,11.33
2022-08-28T07:31:45.374Z,10.87
2022-08-28T07:34:14.030Z,12.80
2022-08-28T07:36:41.910Z,11.37
2022-08-28T07:39:10.986Z,11.47
2022-08-28T07:41:40.308Z,11.00
2022-08-28T07:44:28.020Z,11.43
2022-08-28T07:47:00.521Z,10.80
2022-08-28T07:49:27.495Z,10.23
2022-08-28T07:51:55.323Z,10.27
2022-08-28T07:54:23.172Z,10.20
2022-08-28T07:56:51.664Z,9.87
2022-08-28T07:59:19.444Z,9.75
2022-08-28T08:01:48.008Z,11.07
2022-08-28T08:04:17.999Z,9.77
2022-08-28T08:06:45.127Z,9.57
2022-08-28T08:09:15.100Z,9.43
2022-08-28T08:11:42.651Z,9.10
2022-08-28T08:14:10.960Z,10.13
2022-08-28T08:16:40.886Z,9.15
2022-08-28T08:19:10.054Z,8.35
2022-08-28T08:21:37.972Z,8.02
2022-08-28T08:24:05.833Z,8.60
2022-08-28T08:26:33.716Z,7.75
2022-08-28T08:29:01.047Z,8.60
2022-08-28T08:31:32.496Z,7.63
2022-08-28T08:34:02.018Z,7.43
2022-08-28T08:36:30.031Z,6.90
2022-08-28T08:38:59.529Z,7.03
2022-08-28T08:41:51.122Z,7.10
2022-08-28T08:44:34.553Z,8.02
2022-08-28T08:47:22.813Z,7.30
2022-08-28T08:49:56.884Z,6.70
2022-08-28T08:52:57.699Z,6.47
2022-08-28T08:55:41.905Z,6.57
2022-08-28T08:58:19.964Z,6.30
2022-08-28T09:01:14.015Z,7.07
2022-08-28T09:03:55.461Z,6.32
2022-08-28T09:06:56.423Z,7.45
2022-08-28T09:09:40.983Z,6.20
2022-08-28T09:12:29.920Z,6.05
2022-08-28T09:15:23.553Z,5.78
2022-08-28T09:17:54.493Z,6.30
2022-08-28T09:20:30.197Z,5.65
2022-08-28T09:22:59.863Z,5.90
2022-08-28T09:25:45.088Z,5.80
2022-08-28T09:28:19.068Z,6.15
2022-08-28T09:30:59.022Z,6.50
2022-08-28T09:33:37.987Z,5.40
2022-08-28T09:36:36.368Z,4.95
2022-08-28T09:39:05.892Z,5.20
2022-08-28T09:41:54.004Z,4.78
2022-08-28T09:44:20.887Z,4.80
2022-08-28T09:46:51.035Z,4.93
2022-08-28T09:49:29.998Z,3.95
2022-08-28T09:52:25.029Z,4.35
2022-08-28T09:54:53.508Z,4.60
2022-08-28T09:57:20.382Z,4.13
2022-08-28T09:59:47.903Z,3.63
2022-08-28T10:02:35.349Z,4.88
2022-08-28T10:05:16.532Z,4.15
2022-08-28T10:07:46.669Z,3.13
2022-08-28T10:10:17.988Z,3.40
2022-08-28T10:13:16.214Z,3.60
2022-08-28T10:15:58.061Z,3.58
2022-08-28T10:18:30.782Z,2.75
2022-08-28T10:21:04.006Z,3.45
2022-08-28T10:24:28.318Z,3.60
2022-08-28T10:27:09.416Z,2.95
2022-08-28T10:29:49.492Z,3.03
2022-08-28T10:32:36.025Z,3.88
2022-08-28T10:35:13.643Z,3.22
2022-08-28T10:37:52.532Z,4.13
2022-08-28T10:40:53.486Z,4.30
2022-08-28T10:43:31.522Z,3.08
2022-08-28T10:46:04.062Z,3.53
2022-08-28T10:48:41.312Z,3.58
2022-08-28T10:51:35.239Z,2.88
2022-08-28T10:54:14.359Z,3.85
2022-08-28T10:56:46.359Z,3.45
2022-08-28T10:59:25.233Z,4.45
2022-08-28T11:01:52.611Z,3.58
2022-08-28T11:04:25.693Z,4.20
2022-08-28T11:07:04.696Z,3.40
2022-08-28T11:09:46.090Z,3.65
2022-08-28T11:12:19.804Z,3.80
2022-08-28T11:14:50.072Z,3.70
2022-08-28T11:17:25.136Z,4.28
2022-08-28T11:20:10.112Z,3.58
2022-08-28T11:22:39.141Z,3.75
2022-08-28T11:25:26.521Z,4.18
2022-08-28T11:28:23.835Z,3.50
2022-08-28T11:31:06.042Z,3.58
2022-08-28T11:33:45.888Z,3.47
2022-08-28T11:36:21.538Z,3.63
2022-08-28T11:38:54.116Z,3.50
2022-08-28T11:41:36.571Z,3.20
2022-08-28T11:44:09.190Z,3.45
2022-08-28T11:46:38.750Z,3.10
2022-08-28T11:49:31.492Z,3.70
2022-08-28T11:52:23.409Z,2.90
2022-08-28T11:55:25.100Z,3.88
2022-08-28T12:01:06.774Z,3.50
2022-08-28T12:03:54.501Z,3.55
2022-08-28T12:06:49.725Z,3.30
2022-08-28T12:09:46.271Z,2.72
2022-08-28T12:12:46.192Z,3.47
2022-08-28T12:15:28.298Z,2.80
2022-08-28T12:18:13.129Z,3.13
2022-08-28T12:21:12.754Z,2.58
2022-08-28T12:24:07.211Z,3.25
2022-08-28T12:26:41.411Z,3.20
2022-08-28T12:29:29.661Z,3.13
2022-08-28T12:32:13.048Z,3.30
2022-08-28T12:34:58.162Z,3.28
2022-08-28T12:37:30.810Z,3.38
2022-08-28T12:40:39.097Z,3.50
2022-08-28T12:43:09.141Z,2.90
2022-08-28T12:45:54.738Z,2.80
2022-08-28T12:48:47.316Z,3.22
2022-08-28T12:51:20.854Z,3.00
2022-08-28T12:53:55.145Z,3.30
2022-08-28T12:56:24.390Z,2.72
2022-08-28T12:58:54.650Z,3.20
2022-08-28T13:01:31.676Z,3.00
2022-08-28T13:04:03.144Z,3.10
2022-08-28T13:06:37.316Z,3.45
2022-08-28T13:09:23.756Z,3.00
2022-08-28T13:11:51.688Z,3.22
2022-08-28T13:14:38.831Z,3.60
2022-08-28T13:17:05.804Z,3.17
2022-08-28T13:19:34.270Z,3.30
2022-08-28T13:22:04.780Z,3.40
2022-08-28T13:24:31.566Z,3.33
2022-08-28T13:27:04.165Z,3.30
2022-08-28T13:29:31.769Z,3.40
2022-08-28T13:32:02.524Z,2.72
2022-08-28T13:34:33.760Z,3.20
2022-08-28T13:37:17.463Z,2.88
2022-08-28T13:39:47.180Z,3.30
2022-08-28T13:42:16.789Z,2.60
2022-08-28T13:44:56.680Z,3.00
2022-08-28T13:47:23.495Z,3.42
2022-08-28T13:49:50.491Z,3.00
2022-08-28T13:52:17.743Z,3.40
2022-08-28T13:54:45.712Z,3.53
2022-08-28T13:57:13.662Z,3.33
2022-08-28T13:59:41.962Z,3.20
2022-08-28T14:02:32.419Z,2.92
2022-08-28T14:04:59.792Z,3.10
2022-08-28T14:07:26.893Z,2.88
2022-08-28T14:09:56.366Z,2.63
2022-08-28T14:12:24.953Z,2.60
2022-08-28T14:14:59.513Z,2.90
2022-08-28T14:17:26.666Z,3.08
2022-08-28T14:19:53.596Z,3.30
2022-08-28T14:22:20.414Z,2.92
2022-08-28T14:24:47.175Z,2.95
2022-08-28T14:27:17.791Z,2.55
2022-08-28T14:29:45.650Z,2.97
2022-08-28T14:32:12.504Z,3.25
2022-08-28T14:34:39.381Z,2.70
2022-08-28T14:37:06.398Z,2.83
2022-08-28T14:39:42.373Z,2.97
2022-08-28T14:42:12.996Z,2.83
2022-08-28T14:44:41.247Z,2.90
2022-08-28T14:47:08.714Z,2.67
2022-08-28T14:49:35.869Z,2.65
2022-08-28T14:52:03.316Z,2.70
2022-08-28T14:54:30.118Z,2.70
2022-08-28T14:56:57.211Z,2.30
2022-08-28T14:59:26.894Z,2.30
2022-08-28T15:01:55.694Z,2.70
2022-08-28T15:04:24.437Z,2.50
2022-08-28T15:06:56.878Z,2.30
2022-08-28T15:09:23.845Z,2.60
2022-08-28T15:11:51.000Z,2.70
2022-08-28T15:14:17.978Z,2.47
2022-08-28T15:16:48.313Z,2.47
2022-08-28T15:19:17.999Z,2.60
2022-08-28T15:21:51.246Z,2.75
2022-08-28T15:24:20.366Z,2.92
2022-08-28T15:26:47.425Z,2.90
2022-08-28T15:29:15.261Z,3.10
2022-08-28T15:31:44.442Z,2.95
2022-08-28T15:34:18.533Z,3.05
2022-08-28T15:36:54.863Z,2.65
2022-08-28T15:39:46.032Z,2.47
2022-08-28T15:42:14.130Z,2.67
2022-08-28T15:44:41.007Z,2.75
2022-08-28T15:47:08.402Z,2.15
2022-08-28T15:49:43.328Z,2.88
2022-08-28T15:52:15.542Z,2.83
2022-08-28T15:54:49.680Z,2.80
2022-08-28T15:57:18.086Z,2.58
2022-08-28T15:59:49.628Z,3.00
2022-08-28T16:02:21.052Z,2.40
2022-08-28T16:04:48.502Z,2.22
2022-08-28T16:07:15.768Z,2.17
2022-08-28T16:09:42.667Z,2.33
2022-08-28T16:12:10.504Z,2.00
2022-08-28T16:14:37.390Z,2.38
2022-08-28T16:17:06.040Z,2.08
2022-08-28T16:19:42.112Z,2.55
2022-08-28T16:22:11.390Z,1.80
2022-08-28T16:24:38.532Z,2.10
2022-08-28T16:29:53.033Z,2.03
2022-08-28T16:32:20.108Z,2.60
2022-08-28T16:34:47.316Z,2.20
2022-08-28T16:35:49.245Z,2.10
2022-08-28T16:37:14.320Z,1.63
2022-08-28T16:39:46.447Z,2.20
2022-08-28T16:42:13.296Z,2.40
2022-08-28T16:44:40.140Z,2.10
2022-08-28T16:47:07.231Z,1.92
2022-08-28T16:49:34.069Z,2.13
2022-08-28T16:52:00.958Z,2.50
2022-08-28T16:54:27.822Z,2.33
2022-08-28T16:56:54.905Z,2.10
2022-08-28T16:59:24.161Z,1.92
2022-08-28T17:01:52.938Z,1.95
2022-08-28T17:04:21.211Z,2.00
2022-08-28T17:06:48.219Z,1.67
2022-08-28T17:09:15.134Z,2.25
2022-08-28T17:11:42.103Z,2.03
2022-08-28T17:14:11.003Z,2.20
2022-08-28T17:16:38.304Z,1.85
2022-08-28T17:19:05.132Z,2.17
2022-08-28T17:21:50.366Z,2.65
2022-08-28T17:24:17.213Z,1.98
2022-08-28T17:26:44.502Z,2.08
2022-08-28T17:29:12.135Z,2.42
2022-08-28T17:31:39.767Z,2.10
2022-08-28T17:34:10.453Z,1.83
2022-08-28T17:36:39.720Z,1.63
2022-08-28T17:39:11.582Z,2.05
2022-08-28T17:41:40.174Z,1.83
2022-08-28T17:44:07.373Z,1.95
2022-08-28T17:46:37.705Z,2.10
2022-08-28T17:49:06.472Z,2.10
2022-08-28T17:51:42.607Z,2.03
2022-08-28T17:54:12.714Z,1.70
2022-08-28T17:56:40.249Z,2.17
2022-08-28T17:59:07.710Z,1.85
2022-08-28T18:01:34.871Z,2.15
2022-08-28T18:04:01.864Z,1.83
2022-08-28T18:06:28.645Z,2.10
2022-08-28T18:08:55.612Z,1.95
2022-08-28T18:11:22.604Z,2.47
2022-08-28T18:13:49.500Z,2.30
2022-08-28T18:16:16.729Z,2.50
2022-08-28T18:18:43.971Z,2.35
2022-08-28T18:21:12.274Z,2.33
2022-08-28T18:23:39.873Z,2.47
2022-08-28T18:26:07.831Z,2.30
2022-08-28T18:28:34.926Z,2.47
2022-08-28T18:31:02.674Z,2.67
2022-08-28T18:33:29.687Z,2.97
2022-08-28T18:35:56.895Z,2.30
2022-08-28T18:38:27.750Z,2.72
2022-08-28T18:40:55.324Z,2.60
2022-08-28T18:43:22.519Z,2.50
2022-08-28T18:45:49.683Z,2.57
2022-08-28T18:48:16.744Z,2.50
2022-08-28T18:50:46.443Z,2.50
2022-08-28T18:53:15.021Z,2.53
2022-08-28T18:55:41.831Z,2.43
2022-08-28T18:58:11.092Z,2.80
2022-08-28T19:00:42.980Z,2.67
2022-08-28T19:03:10.213Z,2.57
2022-08-28T19:05:38.736Z,2.67
2022-08-28T19:08:05.988Z,2.80
2022-08-28T19:10:34.856Z,2.50
2022-08-28T19:13:02.499Z,2.70
2022-08-28T19:15:30.197Z,2.50
2022-08-28T19:17:58.024Z,2.77
2022-08-28T19:20:26.445Z,2.70
2022-08-28T19:22:53.507Z,2.70
2022-08-28T19:25:27.705Z,2.80
2022-08-28T19:27:59.174Z,2.67
2022-08-28T19:30:28.606Z,2.77
2022-08-28T19:32:56.128Z,2.67
2022-08-28T19:35:24.599Z,2.83
2022-08-28T19:37:52.563Z,2.80
2022-08-28T19:40:20.643Z,3.00
2022-08-28T19:42:49.707Z,2.87
2022-08-28T19:45:17.702Z,2.90
2022-08-28T19:47:44.838Z,2.87
2022-08-28T19:50:12.763Z,2.77
2022-08-28T19:52:40.712Z,3.10
2022-08-28T19:55:08.774Z,2.60
2022-08-28T19:57:35.679Z,3.20
2022-08-28T20:00:04.035Z,2.87
2022-08-28T20:02:31.312Z,3.00
2022-08-28T20:04:58.852Z,2.90
2022-08-28T20:07:25.747Z,3.20
2022-08-28T20:09:52.628Z,3.50
2022-08-28T20:12:19.669Z,3.40
2022-08-28T20:14:47.505Z,3.37
2022-08-28T20:17:14.394Z,3.20
2022-08-28T20:19:41.500Z,3.70
2022-08-28T20:22:08.472Z,3.47
2022-08-28T20:24:35.298Z,3.87
2022-08-28T20:27:02.174Z,3.77
2022-08-28T20:29:30.122Z,3.90
2022-08-28T20:31:57.215Z,3.77
2022-08-28T20:34:24.014Z,3.53
2022-08-28T20:36:52.425Z,3.63
2022-08-28T20:39:20.973Z,2.93
2022-08-28T20:41:49.215Z,3.80
2022-08-28T20:44:19.634Z,3.27
2022-08-28T20:46:51.044Z,3.43
2022-08-28T20:49:21.875Z,3.77
2022-08-28T20:51:56.830Z,4.07
2022-08-28T20:54:36.927Z,3.40
2022-08-28T20:57:07.492Z,3.43
2022-08-28T20:59:39.857Z,3.37
2022-08-28T21:02:18.371Z,3.33
2022-08-28T21:04:46.641Z,3.47
2022-08-28T21:07:15.758Z,3.17
2022-08-28T21:10:04.086Z,2.90
2022-08-28T21:12:29.812Z,3.70
2022-08-28T21:14:56.709Z,3.70
2022-08-28T21:17:29.891Z,3.70
2022-08-28T21:20:11.261Z,3.23
2022-08-28T21:22:39.691Z,3.20
2022-08-28T21:25:09.107Z,3.53
2022-08-28T21:27:36.855Z,3.37
2022-08-28T21:30:05.356Z,3.13
2022-08-28T21:32:34.042Z,3.67
2022-08-28T21:35:02.255Z,3.43
2022-08-28T21:37:29.111Z,3.93
2022-08-28T21:39:57.400Z,3.57
2022-08-28T21:42:25.081Z,3.37
2022-08-28T21:44:52.292Z,3.53
2022-08-28T21:47:22.990Z,3.47
2022-08-28T21:49:51.170Z,3.60
2022-08-28T21:52:20.043Z,3.77
2022-08-28T21:54:47.083Z,3.87
2022-08-28T21:57:15.552Z,3.33
2022-08-28T21:59:43.488Z,3.70
2022-08-28T22:02:10.400Z,4.00
2022-08-28T22:04:37.303Z,3.93
2022-08-28T22:07:04.181Z,4.23
2022-08-28T22:09:32.027Z,3.93
2022-08-28T22:11:58.844Z,3.93
2022-08-28T22:14:26.025Z,3.80
2022-08-28T22:16:52.846Z,4.27
2022-08-28T22:19:19.842Z,3.80
2022-08-28T22:22:05.139Z,4.03
2022-08-28T22:24:31.983Z,4.00
2022-08-28T22:27:00.094Z,3.90
2022-08-28T22:29:26.987Z,4.07
2022-08-28T22:31:53.810Z,4.03
2022-08-28T22:34:20.607Z,4.13
2022-08-28T22:36:47.401Z,4.17
2022-08-28T22:39:14.268Z,4.43
2022-08-28T22:41:41.975Z,3.80
2022-08-28T22:44:09.241Z,3.57
2022-08-28T22:46:36.197Z,4.30
2022-08-28T22:49:03.700Z,3.57
2022-08-28T22:51:32.819Z,3.33
2022-08-28T22:53:59.764Z,3.70
2022-08-28T22:56:26.830Z,3.50
2022-08-28T22:58:53.616Z,3.73
2022-08-28T23:01:23.543Z,3.57
2022-08-28T23:03:51.124Z,3.67
2022-08-28T23:06:18.391Z,3.30
2022-08-28T23:08:45.796Z,3.43
2022-08-28T23:11:13.247Z,3.57
2022-08-28T23:13:41.052Z,3.47
2022-08-28T23:16:08.442Z,3.37
2022-08-28T23:19:04.273Z,3.40
2022-08-28T23:21:26.301Z,3.37
2022-08-28T23:23:54.944Z,3.53
2022-08-28T23:26:22.255Z,3.73
2022-08-28T23:28:49.137Z,3.93
2022-08-28T23:31:16.443Z,3.73
2022-08-28T23:33:43.709Z,3.97
2022-08-28T23:36:11.364Z,4.63
2022-08-28T23:38:40.806Z,4.47
2022-08-28T23:41:11.165Z,3.83
2022-08-28T23:43:38.151Z,5.90
2022-08-28T23:46:06.607Z,4.03
2022-08-28T23:48:33.809Z,3.97
2022-08-28T23:51:02.472Z,3.90
2022-08-28T23:53:29.435Z,4.03
2022-08-28T23:55:59.448Z,3.70
2022-08-28T23:58:31.622Z,3.83
